createdAt,value
2024-03-02T00:05:04.788Z,78.08
2024-03-02T00:10:14.280Z,78.72
2024-03-02T00:15:50.336Z,78.69
2024-03-02T00:20:58.896Z,79.62
2024-03-02T00:26:03.865Z,79.66
2024-03-02T00:31:15.696Z,79.48
2024-03-02T00:36:29.237Z,80.20
2024-03-02T00:41:33.681Z,79.69
2024-03-02T00:46:39.440Z,80.13
2024-03-02T00:51:43.524Z,80.08
2024-03-02T00:56:47.252Z,79.82
2024-03-02T01:01:51.624Z,80.09
2024-03-02T01:06:56.863Z,80.54
2024-03-02T01:12:00.677Z,80.33
2024-03-02T01:17:06.409Z,80.22
2024-03-02T01:22:10.140Z,80.30
2024-03-02T01:27:14.216Z,79.71
2024-03-02T01:32:17.980Z,79.84
2024-03-02T01:37:21.870Z,79.90
2024-03-02T01:42:25.468Z,79.68
2024-03-02T01:47:29.498Z,79.75
2024-03-02T01:52:33.537Z,80.09
2024-03-02T01:57:37.397Z,80.41
2024-03-02T02:02:41.467Z,79.75
2024-03-02T02:07:46.108Z,80.02
2024-03-02T02:12:49.770Z,80.23
2024-03-02T02:17:54.644Z,80.29
2024-03-02T02:23:19.945Z,80.61
2024-03-02T02:28:23.749Z,80.55
2024-03-02T02:33:27.547Z,80.76
2024-03-02T02:38:32.091Z,81.01
2024-03-02T02:43:35.731Z,81.03
2024-03-02T02:48:39.791Z,81.32
2024-03-02T02:53:43.579Z,80.96
2024-03-02T02:58:47.153Z,81.01
2024-03-02T03:03:51.292Z,81.11
2024-03-02T03:08:55.257Z,80.90
2024-03-02T03:13:58.938Z,81.03
2024-03-02T03:19:03.054Z,80.67
2024-03-02T03:24:06.996Z,80.72
2024-03-02T03:29:10.807Z,80.67
2024-03-02T03:34:17.839Z,80.34
2024-03-02T03:39:21.531Z,80.37
2024-03-02T03:44:26.351Z,80.16
2024-03-02T03:49:30.327Z,79.98
2024-03-02T03:54:34.261Z,80.34
2024-03-02T03:59:39.324Z,79.67
2024-03-02T04:04:43.351Z,79.30
2024-03-02T04:09:46.978Z,78.60
2024-03-02T04:14:51.098Z,78.10
2024-03-02T04:19:54.875Z,77.28
2024-03-02T04:24:58.528Z,77.36
2024-03-02T04:30:02.359Z,76.57
2024-03-02T04:35:11.925Z,76.05
2024-03-02T04:40:15.824Z,75.75
2024-03-02T04:45:19.525Z,75.13
2024-03-02T04:50:24.184Z,75.46
2024-03-02T04:55:30.836Z,74.78
2024-03-02T05:00:36.169Z,73.82
2024-03-02T05:05:40.251Z,73.01
2024-03-02T05:10:44.069Z,72.41
2024-03-02T05:15:48.489Z,71.41
2024-03-02T05:20:52.298Z,70.70
2024-03-02T05:25:55.934Z,70.10
2024-03-02T05:30:59.782Z,68.22
2024-03-02T05:36:04.087Z,68.61
2024-03-02T05:41:07.986Z,67.54
2024-03-02T05:46:12.077Z,68.55
2024-03-02T05:51:16.420Z,69.34
2024-03-02T05:56:20.161Z,68.74
2024-03-02T06:01:30.110Z,68.63
2024-03-02T06:06:35.572Z,68.83
2024-03-02T06:11:39.929Z,68.72
2024-03-02T06:16:44.601Z,68.67
2024-03-02T06:21:48.466Z,68.65
2024-03-02T06:26:52.398Z,68.46
2024-03-02T06:31:56.059Z,65.70
2024-03-02T06:37:00.040Z,65.02
2024-03-02T06:42:04.066Z,65.24
2024-03-02T06:47:07.793Z,65.83
2024-03-02T06:52:11.666Z,65.92
2024-03-02T06:57:15.798Z,65.83
2024-03-02T07:02:19.534Z,65.41
2024-03-02T07:07:23.433Z,65.62
2024-03-02T07:12:27.112Z,65.91
2024-03-02T07:17:31.380Z,65.88
2024-03-02T07:22:36.269Z,65.10
2024-03-02T07:27:41.572Z,64.78
2024-03-02T07:32:47.603Z,64.72
2024-03-02T07:37:51.359Z,64.67
2024-03-02T07:42:55.428Z,64.84
2024-03-02T07:47:59.882Z,64.82
2024-03-02T07:53:04.019Z,64.57
2024-03-02T07:58:08.751Z,64.21
2024-03-02T08:03:13.173Z,64.44
2024-03-02T08:08:16.909Z,64.21
2024-03-02T08:13:20.865Z,64.43
2024-03-02T08:18:24.854Z,64.25
2024-03-02T08:23:28.561Z,63.74
2024-03-02T08:28:32.524Z,61.85
2024-03-02T08:33:38.714Z,62.29
2024-03-02T08:38:43.135Z,63.20
2024-03-02T08:43:46.846Z,63.24
2024-03-02T08:48:50.979Z,63.52
2024-03-02T08:53:54.925Z,63.42
2024-03-02T08:58:58.820Z,63.48
2024-03-02T09:04:02.801Z,63.61
2024-03-02T09:09:06.553Z,63.46
2024-03-02T09:14:10.452Z,63.28
2024-03-02T09:19:14.436Z,63.84
2024-03-02T09:24:18.739Z,63.46
2024-03-02T09:29:22.991Z,62.71
2024-03-02T09:34:26.794Z,63.11
2024-03-02T09:39:30.793Z,63.29
2024-03-02T09:44:35.802Z,63.01
2024-03-02T09:49:40.364Z,62.18
2024-03-02T09:54:44.546Z,62.53
2024-03-02T09:59:48.570Z,62.39
2024-03-02T10:04:52.390Z,62.38
2024-03-02T10:09:56.509Z,62.02
2024-03-02T10:15:07.426Z,60.91
2024-03-02T10:20:26.080Z,61.24
2024-03-02T10:25:43.139Z,61.30
2024-03-02T10:30:55.340Z,60.03
2024-03-02T10:35:59.188Z,60.73
2024-03-02T10:41:05.690Z,60.04
2024-03-02T10:46:09.867Z,59.37
2024-03-02T10:51:13.930Z,59.53
2024-03-02T10:56:29.727Z,59.60
2024-03-02T11:01:34.740Z,58.94
2024-03-02T11:06:41.738Z,58.33
2024-03-02T11:11:47.486Z,58.61
2024-03-02T11:16:51.492Z,59.25
2024-03-02T11:21:56.937Z,59.38
2024-03-02T11:27:14.853Z,60.14
2024-03-02T11:32:22.731Z,60.41
2024-03-02T11:37:27.393Z,60.73
2024-03-02T11:42:31.367Z,61.30
2024-03-02T11:47:38.792Z,61.05
2024-03-02T11:52:46.967Z,61.46
2024-03-02T11:57:55.348Z,61.37
2024-03-02T12:03:07.595Z,61.57
2024-03-02T12:08:14.210Z,62.17
2024-03-02T12:13:17.967Z,61.80
2024-03-02T12:18:22.049Z,62.30
2024-03-02T12:23:26.386Z,62.69
2024-03-02T12:28:32.318Z,62.68
2024-03-02T12:33:36.647Z,63.16
2024-03-02T12:38:46.251Z,63.63
2024-03-02T12:43:50.111Z,63.18
2024-03-02T12:48:54.164Z,63.86
2024-03-02T12:53:59.684Z,64.13
2024-03-02T12:59:03.649Z,64.42
2024-03-02T13:04:07.609Z,64.60
2024-03-02T13:09:17.312Z,64.58
2024-03-02T13:14:26.848Z,64.82
2024-03-02T13:19:32.880Z,64.75
2024-03-02T13:24:37.049Z,64.96
2024-03-02T13:29:41.009Z,64.91
2024-03-02T13:34:46.186Z,64.95
2024-03-02T13:39:50.008Z,65.44
2024-03-02T13:44:55.430Z,65.10
2024-03-02T13:49:59.638Z,65.26
2024-03-02T13:55:04.203Z,65.46
2024-03-02T14:00:12.251Z,65.36
2024-03-02T14:05:17.253Z,65.56
2024-03-02T14:10:24.301Z,65.70
2024-03-02T14:15:28.212Z,66.22
2024-03-02T14:20:32.118Z,66.01
2024-03-02T14:25:35.959Z,65.78
2024-03-02T14:30:40.149Z,66.05
2024-03-02T14:35:44.261Z,66.42
2024-03-02T14:40:47.998Z,66.13
2024-03-02T14:45:54.075Z,66.46
2024-03-02T14:50:57.964Z,66.68
2024-03-02T14:56:02.992Z,66.41
2024-03-02T15:01:11.151Z,66.89
2024-03-02T15:06:15.306Z,66.55
2024-03-02T15:11:19.187Z,66.85
2024-03-02T15:16:23.093Z,67.33
2024-03-02T15:21:26.979Z,67.15
2024-03-02T15:26:30.809Z,67.49
2024-03-02T15:31:35.598Z,67.44
2024-03-02T15:36:39.447Z,67.60
2024-03-02T15:41:45.772Z,67.44
2024-03-02T15:46:49.719Z,67.62
2024-03-02T15:51:54.196Z,67.54
2024-03-02T15:56:58.169Z,67.27
2024-03-02T16:02:01.952Z,67.07
2024-03-02T16:07:06.031Z,67.13
2024-03-02T16:12:09.988Z,67.65
2024-03-02T16:17:13.870Z,67.92
2024-03-02T16:22:17.540Z,67.43
2024-03-02T16:27:21.458Z,67.44
2024-03-02T16:32:25.323Z,67.73
2024-03-02T16:37:29.035Z,67.66
2024-03-02T16:42:33.743Z,67.89
2024-03-02T16:47:37.661Z,68.25
2024-03-02T16:52:41.726Z,68.00
2024-03-02T16:57:45.611Z,67.98
2024-03-02T17:02:50.001Z,68.24
2024-03-02T17:07:54.839Z,68.67
2024-03-02T17:13:01.582Z,68.17
2024-03-02T17:18:05.546Z,68.35
2024-03-02T17:23:09.544Z,68.41
2024-03-02T17:28:29.579Z,68.28
2024-03-02T17:33:34.551Z,68.27
2024-03-02T17:38:38.304Z,68.65
2024-03-02T17:43:42.968Z,68.00
2024-03-02T17:48:46.875Z,68.49
2024-03-02T17:53:53.322Z,68.48
2024-03-02T17:58:57.010Z,67.97
2024-03-02T18:04:00.898Z,68.25
2024-03-02T18:09:05.093Z,68.07
2024-03-02T18:14:08.780Z,68.21
2024-03-02T18:19:13.935Z,67.67
2024-03-02T18:24:19.276Z,67.89
2024-03-02T18:29:23.217Z,68.35
2024-03-02T18:34:27.245Z,68.45
2024-03-02T18:39:31.023Z,68.07
2024-03-02T18:44:35.711Z,67.69
2024-03-02T18:49:46.861Z,68.12
2024-03-02T18:54:50.649Z,67.96
2024-03-02T18:59:54.725Z,67.90
2024-03-02T19:04:58.573Z,68.25
2024-03-02T19:10:04.874Z,67.97
2024-03-02T19:15:08.987Z,67.51
2024-03-02T19:20:13.317Z,68.22
2024-03-02T19:25:17.989Z,68.09
2024-03-02T19:30:22.004Z,68.26
2024-03-02T19:35:28.268Z,67.95
2024-03-02T19:40:32.129Z,67.88
2024-03-02T19:45:36.074Z,67.82
2024-03-02T19:50:41.688Z,67.92
2024-03-02T19:55:46.656Z,67.03
2024-03-02T20:00:50.598Z,67.93
2024-03-02T20:05:55.033Z,67.49
2024-03-02T20:10:58.663Z,67.72
2024-03-02T20:16:02.600Z,68.08
2024-03-02T20:21:06.808Z,67.41
2024-03-02T20:26:10.566Z,67.48
2024-03-02T20:31:17.049Z,67.76
2024-03-02T20:36:21.467Z,67.33
2024-03-02T20:41:26.823Z,67.42
2024-03-02T20:46:30.522Z,67.29
2024-03-02T20:51:34.376Z,67.63
2024-03-02T20:56:42.942Z,67.32
2024-03-02T21:01:50.373Z,68.07
2024-03-02T21:06:54.341Z,67.67
2024-03-02T21:11:58.065Z,67.36
2024-03-02T21:17:01.831Z,67.44
2024-03-02T21:22:07.914Z,67.33
2024-03-02T21:27:13.102Z,67.77
2024-03-02T21:32:16.913Z,67.52
2024-03-02T21:37:20.625Z,67.05
2024-03-02T21:42:24.826Z,67.45
2024-03-02T21:47:28.499Z,67.36
2024-03-02T21:52:32.343Z,67.07
2024-03-02T21:57:36.913Z,67.45
2024-03-02T22:02:40.819Z,67.07
2024-03-02T22:07:45.926Z,67.04
2024-03-02T22:12:50.234Z,67.38
2024-03-02T22:17:54.766Z,67.03
2024-03-02T22:22:59.076Z,67.49
2024-03-02T22:28:02.901Z,67.17
2024-03-02T22:33:07.148Z,67.30
2024-03-02T22:38:10.805Z,66.67
2024-03-02T22:43:15.041Z,67.16
2024-03-02T22:48:18.825Z,67.31
2024-03-02T22:53:23.339Z,67.02
2024-03-02T22:58:29.028Z,66.79
2024-03-02T23:03:32.804Z,67.00
2024-03-02T23:08:38.249Z,66.72
2024-03-02T23:13:41.618Z,66.48
2024-03-02T23:18:45.621Z,67.29
2024-03-02T23:23:51.118Z,66.30
2024-03-02T23:28:55.143Z,67.28
2024-03-02T23:34:01.332Z,67.02
2024-03-02T23:39:06.287Z,66.57
2024-03-02T23:44:10.609Z,66.98
2024-03-02T23:49:14.667Z,66.41
2024-03-02T23:54:18.282Z,66.89
2024-03-02T23:59:22.222Z,66.93
